createdAt,value
2017-10-11T00:02:38.072Z,6.57
2017-10-11T00:17:37.033Z,7.63
2017-10-11T00:32:39.776Z,6.70
2017-10-11T00:47:34.752Z,6.30
2017-10-11T01:02:39.978Z,6.77
2017-10-11T01:17:35.786Z,5.83
2017-10-11T01:32:35.141Z,5.50
2017-10-11T01:47:34.773Z,5.43
2017-10-11T02:02:34.834Z,5.70
2017-10-11T02:17:37.769Z,6.70
2017-10-11T02:32:35.376Z,6.33
2017-10-11T02:47:37.961Z,6.30
2017-10-11T03:02:35.340Z,7.50
2017-10-11T03:17:34.880Z,7.40
2017-10-11T03:32:35.688Z,6.70
2017-10-11T03:47:35.189Z,7.40
2017-10-11T04:02:37.207Z,8.23
2017-10-11T04:32:37.996Z,7.90
2017-10-11T04:47:37.285Z,12.23
2017-10-11T05:02:38.450Z,11.77
2017-10-11T05:17:34.705Z,10.37
2017-10-11T05:32:41.388Z,14.63
2017-10-11T05:47:37.700Z,13.43
2017-10-11T06:02:34.595Z,11.57
2017-10-11T06:17:35.063Z,15.27
2017-10-11T06:32:35.420Z,14.77
2017-10-11T06:47:35.969Z,17.17
2017-10-11T07:02:34.897Z,17.53
2017-10-11T07:17:35.479Z,14.93
2017-10-11T07:32:35.187Z,12.70
2017-10-11T07:47:35.429Z,15.40
2017-10-11T08:02:37.636Z,15.20
2017-10-11T08:17:37.680Z,14.63
2017-10-11T08:32:37.506Z,13.63
2017-10-11T08:47:35.697Z,13.90
2017-10-11T09:02:37.355Z,15.20
2017-10-11T09:17:36.888Z,11.60
2017-10-11T09:32:34.891Z,10.80
2017-10-11T09:47:34.617Z,12.00
2017-10-11T10:02:37.021Z,10.63
2017-10-11T10:17:34.495Z,8.13
2017-10-11T10:32:35.176Z,8.20
2017-10-11T10:47:38.101Z,7.17
2017-10-11T11:02:34.705Z,5.80
2017-10-11T11:17:35.785Z,4.77
2017-10-11T11:32:38.391Z,4.50
2017-10-11T11:47:35.671Z,4.90
2017-10-11T12:02:35.164Z,4.03
2017-10-11T12:17:34.473Z,3.60
2017-10-11T12:32:34.520Z,3.83
2017-10-11T12:47:35.831Z,4.23
2017-10-11T13:02:35.507Z,3.30
2017-10-11T13:17:38.201Z,3.10
2017-10-11T13:32:34.663Z,3.47
2017-10-11T13:47:36.686Z,3.97
2017-10-11T14:02:35.043Z,3.47
2017-10-11T14:17:39.529Z,3.20
2017-10-11T14:32:34.926Z,3.90
2017-10-11T14:47:36.977Z,4.07
2017-10-11T15:02:34.831Z,5.40
2017-10-11T15:17:35.653Z,5.20
2017-10-11T15:32:35.162Z,6.13
2017-10-11T15:47:35.215Z,6.53
2017-10-11T16:02:35.239Z,8.70
2017-10-11T16:17:37.478Z,8.73
2017-10-11T16:32:35.748Z,10.93
2017-10-11T16:47:37.305Z,12.53
2017-10-11T17:02:37.742Z,17.23
2017-10-11T17:17:35.112Z,11.40
2017-10-11T17:32:35.178Z,26.07
2017-10-11T17:47:36.042Z,13.73
2017-10-11T18:02:37.905Z,15.77
2017-10-11T18:17:37.757Z,19.63
2017-10-11T18:32:38.159Z,22.50
2017-10-11T18:47:37.002Z,17.07
2017-10-11T19:02:37.522Z,16.40
2017-10-11T19:17:35.736Z,19.67
2017-10-11T19:32:35.671Z,14.90
2017-10-11T19:47:35.604Z,17.80
2017-10-11T20:02:37.813Z,15.50
2017-10-11T20:17:37.333Z,14.73
2017-10-11T20:32:35.518Z,14.10
2017-10-11T20:47:34.981Z,13.30
2017-10-11T21:02:34.770Z,13.97
2017-10-11T21:17:35.216Z,13.37
2017-10-11T21:32:35.258Z,12.00
2017-10-11T21:47:35.227Z,14.60
2017-10-11T22:02:37.689Z,12.93
2017-10-11T22:17:35.431Z,11.53
2017-10-11T22:32:35.203Z,8.10
2017-10-11T22:47:35.534Z,6.33
2017-10-11T23:02:37.914Z,5.60
2017-10-11T23:17:37.702Z,5.40
2017-10-11T23:32:37.837Z,5.00
2017-10-11T23:47:37.217Z,7.00
